Kelleys Island, Ohio
Current Conditions -  °F | °C
As of 11:53 PM on Thursday 30 Oct 2014 (Local Time) from KPCW Reporting Station
Overcast Overcast  
Wind Chill:   Ceiling: 4900
Heat Index:   Visibility: 10mi
Dew Point:   Wind: 5mph
Humidity: 73%   Direction: 220°SW
Pressure: 30.02"   Gusts: NA
Location:  41.6°N, 82.71°W
Report Text: KPCW 310353Z AUTO 22004KT 10SM OVC049 08/04 A3002 RMK AO2 T00830038 $
Loading
Personal Weather Stations






























Interactive Weather Map
Tropical Storm Tracking
New forecast layout! Learn more

10-Day Weather Forecast

Advertisements
Track Severe Weather on mobile